createdAt,value
2022-09-03T00:03:59.987Z,27.25
2022-09-03T00:14:18.076Z,29.92
2022-09-03T00:19:26.159Z,26.88
2022-09-03T00:24:34.388Z,28.05
2022-09-03T00:29:48.986Z,19.67
2022-09-03T00:35:03.218Z,25.73
2022-09-03T00:40:18.017Z,24.33
2022-09-03T00:45:27.169Z,33.08
2022-09-03T00:50:46.741Z,39.38
2022-09-03T00:56:33.011Z,33.30
2022-09-03T01:01:46.098Z,36.28
2022-09-03T01:07:03.868Z,27.08
2022-09-03T01:12:14.801Z,20.30
2022-09-03T01:17:21.163Z,29.13
2022-09-03T01:22:32.371Z,20.13
2022-09-03T01:27:58.912Z,27.67
2022-09-03T01:33:08.559Z,20.77
2022-09-03T01:38:16.844Z,22.27
2022-09-03T01:43:51.867Z,21.05
2022-09-03T01:49:11.521Z,22.42
2022-09-03T01:54:20.929Z,23.65
2022-09-03T01:59:36.316Z,19.20
2022-09-03T02:04:38.584Z,14.90
2022-09-03T02:09:40.784Z,15.02
2022-09-03T02:14:43.921Z,15.35
2022-09-03T02:19:46.124Z,15.15
2022-09-03T02:24:48.303Z,18.25
2022-09-03T02:29:50.846Z,13.30
2022-09-03T02:34:53.148Z,8.98
2022-09-03T02:39:55.677Z,13.48
2022-09-03T02:45:08.332Z,8.85
2022-09-03T02:50:10.751Z,7.07
2022-09-03T02:55:13.039Z,10.73
2022-09-03T03:00:15.645Z,9.23
2022-09-03T03:05:26.720Z,8.02
2022-09-03T03:10:28.961Z,10.48
2022-09-03T03:15:31.140Z,12.38
2022-09-03T03:20:33.957Z,9.60
2022-09-03T03:25:38.532Z,9.48
2022-09-03T03:30:42.930Z,9.45
2022-09-03T03:35:45.273Z,9.27
2022-09-03T03:40:47.495Z,9.75
2022-09-03T03:45:59.872Z,13.85
2022-09-03T03:51:05.083Z,15.27
2022-09-03T03:56:10.373Z,11.95
2022-09-03T04:01:15.482Z,10.93
2022-09-03T04:06:20.030Z,9.77
2022-09-03T04:11:24.230Z,8.85
2022-09-03T04:16:27.783Z,12.85
2022-09-03T04:21:31.350Z,14.55
2022-09-03T04:26:34.642Z,16.88
2022-09-03T04:31:38.592Z,15.38
2022-09-03T04:36:41.140Z,14.85
2022-09-03T04:41:43.353Z,14.57
2022-09-03T04:46:47.964Z,14.40
2022-09-03T04:51:50.254Z,12.85
2022-09-03T04:56:52.497Z,17.98
2022-09-03T05:01:56.461Z,14.80
2022-09-03T05:06:58.880Z,14.27
2022-09-03T05:12:01.179Z,13.18
2022-09-03T05:17:03.392Z,12.98
2022-09-03T05:22:05.774Z,12.95
2022-09-03T05:27:08.087Z,10.85
2022-09-03T05:32:10.555Z,14.93
2022-09-03T05:37:12.826Z,16.55
2022-09-03T05:42:15.284Z,14.80
2022-09-03T05:47:17.421Z,16.27
2022-09-03T05:52:21.766Z,15.30
2022-09-03T05:57:24.936Z,14.57
2022-09-03T06:02:27.214Z,13.02
2022-09-03T06:07:29.586Z,12.10
2022-09-03T06:12:31.721Z,11.88
2022-09-03T06:17:34.013Z,12.30
2022-09-03T06:22:36.283Z,10.88
2022-09-03T06:27:38.492Z,10.73
2022-09-03T06:32:47.615Z,9.60
2022-09-03T06:37:49.818Z,9.77
2022-09-03T06:43:00.954Z,11.23
2022-09-03T06:48:03.464Z,8.18
2022-09-03T06:53:06.217Z,6.47
2022-09-03T06:58:09.257Z,8.38
2022-09-03T07:03:11.427Z,8.15
2022-09-03T07:08:13.639Z,10.23
2022-09-03T07:13:16.048Z,6.90
2022-09-03T07:18:18.325Z,5.55
2022-09-03T07:23:20.480Z,5.13
2022-09-03T07:28:24.908Z,6.72
2022-09-03T07:33:33.527Z,4.57
2022-09-03T07:38:37.129Z,4.40
2022-09-03T07:43:49.724Z,4.72
2022-09-03T07:48:53.718Z,5.68
2022-09-03T07:54:02.324Z,5.47
2022-09-03T07:59:05.523Z,3.25
2022-09-03T08:04:09.482Z,5.82
2022-09-03T08:09:13.922Z,4.70
2022-09-03T08:14:16.640Z,5.18
2022-09-03T08:19:19.368Z,4.47
2022-09-03T08:24:24.876Z,4.13
2022-09-03T08:29:27.683Z,4.88
2022-09-03T08:34:29.887Z,8.13
2022-09-03T08:39:32.285Z,3.97
2022-09-03T08:44:47.390Z,5.32
2022-09-03T08:49:55.873Z,1.60
2022-09-03T08:55:42.777Z,5.03
2022-09-03T09:01:12.083Z,2.72
2022-09-03T09:06:23.400Z,4.13
2022-09-03T09:11:50.937Z,3.15
2022-09-03T09:17:08.525Z,3.85
2022-09-03T09:22:29.962Z,5.35
2022-09-03T09:27:33.112Z,2.80
2022-09-03T09:32:38.477Z,2.70
2022-09-03T09:37:55.557Z,4.85
2022-09-03T09:43:07.166Z,3.95
2022-09-03T09:48:34.149Z,4.78
2022-09-03T09:53:36.729Z,5.30
2022-09-03T09:58:38.976Z,3.60
2022-09-03T10:04:09.545Z,4.03
2022-09-03T10:09:23.462Z,6.47
2022-09-03T10:14:42.101Z,2.58
2022-09-03T10:20:17.262Z,3.90
2022-09-03T10:25:22.354Z,4.28
2022-09-03T10:30:24.801Z,2.50
2022-09-03T10:35:45.874Z,2.28
2022-09-03T10:41:30.134Z,4.63
2022-09-03T10:47:04.466Z,4.85
2022-09-03T10:52:30.986Z,4.07
2022-09-03T10:57:41.798Z,4.20
2022-09-03T11:02:56.083Z,3.15
2022-09-03T11:08:38.246Z,6.63
2022-09-03T11:13:57.405Z,3.67
2022-09-03T11:19:11.421Z,1.85
2022-09-03T11:24:23.592Z,2.85
2022-09-03T11:29:58.042Z,3.42
2022-09-03T11:35:00.251Z,2.70
2022-09-03T11:40:20.785Z,3.85
2022-09-03T11:45:30.220Z,4.72
2022-09-03T11:50:34.226Z,2.20
2022-09-03T11:55:59.352Z,4.95
2022-09-03T12:01:05.729Z,3.23
2022-09-03T12:06:26.441Z,2.60
2022-09-03T12:11:46.781Z,4.65
2022-09-03T12:17:14.071Z,3.08
2022-09-03T12:22:18.474Z,9.48
2022-09-03T12:27:27.725Z,4.45
2022-09-03T12:32:34.946Z,5.30
2022-09-03T12:48:47.103Z,2.53
2022-09-03T12:53:50.811Z,6.03
2022-09-03T12:59:01.612Z,3.63
2022-09-03T13:04:10.882Z,3.38
2022-09-03T13:09:14.792Z,3.35
2022-09-03T13:14:19.140Z,2.97
2022-09-03T13:19:48.380Z,3.20
2022-09-03T13:24:53.547Z,4.47
2022-09-03T13:30:09.162Z,3.20
2022-09-03T13:35:32.412Z,2.75
2022-09-03T13:40:49.936Z,2.78
2022-09-03T13:46:11.524Z,3.83
2022-09-03T13:51:25.966Z,3.42
2022-09-03T13:56:35.748Z,5.35
2022-09-03T14:01:43.740Z,3.90
2022-09-03T14:06:59.591Z,2.80
2022-09-03T14:12:06.345Z,3.50
2022-09-03T14:17:50.436Z,3.28
2022-09-03T14:22:59.745Z,2.25
2022-09-03T14:28:20.656Z,4.03
2022-09-03T14:33:39.178Z,4.88
2022-09-03T14:38:58.358Z,4.70
2022-09-03T14:44:09.754Z,4.43
2022-09-03T14:49:36.844Z,4.18
2022-09-03T14:55:06.659Z,3.05
2022-09-03T15:00:19.723Z,5.40
2022-09-03T15:05:41.268Z,2.65
2022-09-03T15:10:56.535Z,3.58
2022-09-03T15:16:01.905Z,4.53
2022-09-03T15:21:22.754Z,4.77
2022-09-03T15:26:39.479Z,3.15
2022-09-03T15:32:06.057Z,2.13
2022-09-03T15:37:18.784Z,2.53
2022-09-03T15:42:28.702Z,5.03
2022-09-03T15:47:51.683Z,4.80
2022-09-03T15:53:19.436Z,4.20
2022-09-03T15:58:58.844Z,4.80
2022-09-03T16:04:26.857Z,2.95
2022-09-03T16:10:01.959Z,3.35
2022-09-03T16:15:18.660Z,4.20
2022-09-03T16:20:23.284Z,3.17
2022-09-03T16:25:45.170Z,4.43
2022-09-03T16:30:47.268Z,1.88
2022-09-03T16:36:11.154Z,4.97
2022-09-03T16:41:28.068Z,4.75
2022-09-03T16:46:47.602Z,5.28
2022-09-03T16:52:16.237Z,3.90
2022-09-03T16:57:46.175Z,3.92
2022-09-03T17:03:06.367Z,8.90
2022-09-03T17:08:44.401Z,3.22
2022-09-03T17:14:21.165Z,2.40
2022-09-03T17:19:39.275Z,3.83
2022-09-03T17:24:51.271Z,5.25
2022-09-03T17:30:40.789Z,5.65
2022-09-03T17:36:16.158Z,4.22
2022-09-03T17:41:44.264Z,3.58
2022-09-03T17:47:08.094Z,3.55
2022-09-03T17:52:21.017Z,3.00
2022-09-03T17:57:42.688Z,7.47
2022-09-03T18:03:15.952Z,3.42
2022-09-03T18:08:29.999Z,3.05
2022-09-03T18:13:49.619Z,4.68
2022-09-03T18:18:53.475Z,5.30
2022-09-03T18:29:54.525Z,4.30
2022-09-03T18:35:15.406Z,5.03
2022-09-03T18:40:41.962Z,5.35
2022-09-03T18:52:02.646Z,4.68
2022-09-03T18:57:35.626Z,3.90
2022-09-03T19:03:08.458Z,5.72
2022-09-03T19:08:49.052Z,8.02
2022-09-03T19:14:10.489Z,8.63
2022-09-03T19:19:37.393Z,8.57
2022-09-03T19:24:58.055Z,6.28
2022-09-03T19:30:51.455Z,3.63
2022-09-03T19:36:24.709Z,5.00
2022-09-03T19:41:59.686Z,5.30
2022-09-03T19:47:22.691Z,3.92
2022-09-03T19:53:03.595Z,4.03
2022-09-03T19:58:42.106Z,5.13
2022-09-03T20:04:03.616Z,4.25
2022-09-03T20:09:28.981Z,5.55
2022-09-03T20:14:33.404Z,5.27
2022-09-03T20:19:47.745Z,8.00
2022-09-03T20:25:10.997Z,3.95
2022-09-03T20:30:23.166Z,4.32
2022-09-03T20:35:34.367Z,6.43
2022-09-03T20:41:00.030Z,5.55
2022-09-03T20:46:41.459Z,5.60
2022-09-03T20:51:55.281Z,5.47
2022-09-03T20:57:31.949Z,6.18
2022-09-03T21:02:52.586Z,6.68
2022-09-03T21:08:03.960Z,6.45
2022-09-03T21:13:25.042Z,7.63
2022-09-03T21:18:47.697Z,4.88
2022-09-03T21:24:00.901Z,6.80
2022-09-03T21:29:33.718Z,4.95
2022-09-03T21:35:04.018Z,8.73
2022-09-03T21:40:09.918Z,9.30
2022-09-03T21:45:50.273Z,7.00
2022-09-03T21:51:00.951Z,7.63
2022-09-03T21:56:35.288Z,7.57
2022-09-03T22:02:08.962Z,4.75
2022-09-03T22:07:41.757Z,6.85
2022-09-03T22:13:28.942Z,7.70
2022-09-03T22:18:36.555Z,8.82
2022-09-03T22:24:14.745Z,4.43
2022-09-03T22:29:54.455Z,7.35
2022-09-03T22:35:23.024Z,8.05
2022-09-03T22:40:45.457Z,9.10
2022-09-03T22:46:14.423Z,6.10
2022-09-03T22:51:21.490Z,10.10
2022-09-03T22:56:24.290Z,8.05
2022-09-03T23:01:30.648Z,7.88
2022-09-03T23:06:39.833Z,8.13
2022-09-03T23:11:53.140Z,5.63
2022-09-03T23:17:00.920Z,7.43
2022-09-03T23:22:07.758Z,10.10
2022-09-03T23:27:20.614Z,6.75
2022-09-03T23:32:23.332Z,6.43
2022-09-03T23:37:43.567Z,10.15
2022-09-03T23:42:59.906Z,8.48
2022-09-03T23:48:21.956Z,6.78
2022-09-03T23:53:40.444Z,6.95
2022-09-03T23:58:51.361Z,7.78
